sensor_id;sensor_type;location;lat;lon;timestamp;P1;durP1;ratioP1;P2;durP2;ratioP2
19235;SDS011;9752;54.270;12.470;2023-02-28T00:04:13;16.90;;;14.97;;
19235;SDS011;9752;54.270;12.470;2023-02-28T00:09:15;16.93;;;13.03;;
19235;SDS011;9752;54.270;12.470;2023-02-28T00:14:17;16.30;;;14.63;;
19235;SDS011;9752;54.270;12.470;2023-02-28T00:19:20;14.80;;;13.40;;
19235;SDS011;9752;54.270;12.470;2023-02-28T00:24:22;14.93;;;13.43;;
19235;SDS011;9752;54.270;12.470;2023-02-28T00:29:23;15.80;;;12.97;;
19235;SDS011;9752;54.270;12.470;2023-02-28T00:34:26;16.17;;;14.63;;
19235;SDS011;9752;54.270;12.470;2023-02-28T00:39:28;17.53;;;14.77;;
19235;SDS011;9752;54.270;12.470;2023-02-28T00:44:30;23.27;;;16.50;;
19235;SDS011;9752;54.270;12.470;2023-02-28T00:49:33;24.77;;;16.53;;
19235;SDS011;9752;54.270;12.470;2023-02-28T00:54:36;19.97;;;14.33;;
19235;SDS011;9752;54.270;12.470;2023-02-28T00:59:37;16.67;;;13.20;;
19235;SDS011;9752;54.270;12.470;2023-02-28T01:04:41;22.00;;;16.07;;
19235;SDS011;9752;54.270;12.470;2023-02-28T01:09:43;16.13;;;14.23;;
19235;SDS011;9752;54.270;12.470;2023-02-28T01:14:46;22.97;;;15.10;;
19235;SDS011;9752;54.270;12.470;2023-02-28T01:19:49;15.77;;;13.43;;
19235;SDS011;9752;54.270;12.470;2023-02-28T01:24:51;18.33;;;13.47;;
19235;SDS011;9752;54.270;12.470;2023-02-28T01:29:53;19.17;;;13.87;;
19235;SDS011;9752;54.270;12.470;2023-02-28T01:34:56;15.93;;;14.03;;
19235;SDS011;9752;54.270;12.470;2023-02-28T01:39:57;20.87;;;14.17;;
19235;SDS011;9752;54.270;12.470;2023-02-28T01:45:01;23.17;;;15.63;;
19235;SDS011;9752;54.270;12.470;2023-02-28T01:50:09;24.17;;;15.27;;
19235;SDS011;9752;54.270;12.470;2023-02-28T01:55:17;16.07;;;14.33;;
19235;SDS011;9752;54.270;12.470;2023-02-28T02:00:21;18.90;;;14.83;;
19235;SDS011;9752;54.270;12.470;2023-02-28T02:05:29;16.67;;;13.87;;
19235;SDS011;9752;54.270;12.470;2023-02-28T02:10:33;17.90;;;14.53;;
19235;SDS011;9752;54.270;12.470;2023-02-28T02:15:38;18.37;;;13.67;;
19235;SDS011;9752;54.270;12.470;2023-02-28T02:20:49;21.53;;;14.17;;
19235;SDS011;9752;54.270;12.470;2023-02-28T02:26:17;17.67;;;14.90;;
19235;SDS011;9752;54.270;12.470;2023-02-28T02:31:50;17.93;;;13.60;;
19235;SDS011;9752;54.270;12.470;2023-02-28T02:37:14;20.30;;;15.10;;
19235;SDS011;9752;54.270;12.470;2023-02-28T02:42:23;22.73;;;14.10;;
19235;SDS011;9752;54.270;12.470;2023-02-28T02:47:33;17.73;;;13.90;;
19235;SDS011;9752;54.270;12.470;2023-02-28T02:52:38;17.93;;;14.33;;
19235;SDS011;9752;54.270;12.470;2023-02-28T02:57:45;26.83;;;15.97;;
19235;SDS011;9752;54.270;12.470;2023-02-28T03:02:49;20.17;;;15.63;;
19235;SDS011;9752;54.270;12.470;2023-02-28T03:07:55;20.50;;;15.87;;
19235;SDS011;9752;54.270;12.470;2023-02-28T03:13:00;18.03;;;15.77;;
19235;SDS011;9752;54.270;12.470;2023-02-28T03:18:14;20.33;;;14.03;;
19235;SDS011;9752;54.270;12.470;2023-02-28T03:23:29;21.03;;;14.43;;
19235;SDS011;9752;54.270;12.470;2023-02-28T03:28:43;19.17;;;14.23;;
19235;SDS011;9752;54.270;12.470;2023-02-28T03:33:49;25.40;;;16.03;;
19235;SDS011;9752;54.270;12.470;2023-02-28T03:38:59;20.43;;;14.37;;
19235;SDS011;9752;54.270;12.470;2023-02-28T03:44:06;16.60;;;13.70;;
19235;SDS011;9752;54.270;12.470;2023-02-28T03:49:15;24.70;;;16.20;;
19235;SDS011;9752;54.270;12.470;2023-02-28T03:54:22;20.67;;;15.87;;
19235;SDS011;9752;54.270;12.470;2023-02-28T03:59:30;26.70;;;16.10;;
19235;SDS011;9752;54.270;12.470;2023-02-28T04:04:35;17.90;;;14.20;;
19235;SDS011;9752;54.270;12.470;2023-02-28T04:09:38;20.90;;;15.37;;
19235;SDS011;9752;54.270;12.470;2023-02-28T04:14:40;23.43;;;15.60;;
19235;SDS011;9752;54.270;12.470;2023-02-28T04:19:42;24.97;;;17.40;;
19235;SDS011;9752;54.270;12.470;2023-02-28T04:24:46;22.93;;;17.23;;
19235;SDS011;9752;54.270;12.470;2023-02-28T04:29:48;26.63;;;20.43;;
19235;SDS011;9752;54.270;12.470;2023-02-28T04:34:49;35.83;;;21.13;;
19235;SDS011;9752;54.270;12.470;2023-02-28T04:39:52;28.20;;;19.57;;
19235;SDS011;9752;54.270;12.470;2023-02-28T04:44:54;29.77;;;20.17;;
19235;SDS011;9752;54.270;12.470;2023-02-28T04:49:56;22.87;;;17.87;;
19235;SDS011;9752;54.270;12.470;2023-02-28T04:54:59;29.30;;;18.13;;
19235;SDS011;9752;54.270;12.470;2023-02-28T05:00:01;24.93;;;19.20;;
19235;SDS011;9752;54.270;12.470;2023-02-28T05:05:06;24.93;;;17.10;;
19235;SDS011;9752;54.270;12.470;2023-02-28T05:10:10;23.50;;;17.70;;
19235;SDS011;9752;54.270;12.470;2023-02-28T05:15:12;23.33;;;16.10;;
19235;SDS011;9752;54.270;12.470;2023-02-28T05:20:15;19.77;;;16.97;;
19235;SDS011;9752;54.270;12.470;2023-02-28T05:25:19;24.03;;;16.17;;
19235;SDS011;9752;54.270;12.470;2023-02-28T05:30:22;22.43;;;16.70;;
19235;SDS011;9752;54.270;12.470;2023-02-28T05:35:24;19.50;;;16.33;;
19235;SDS011;9752;54.270;12.470;2023-02-28T05:40:28;19.87;;;17.10;;
19235;SDS011;9752;54.270;12.470;2023-02-28T05:45:29;21.83;;;17.23;;
19235;SDS011;9752;54.270;12.470;2023-02-28T05:50:31;22.97;;;15.57;;
19235;SDS011;9752;54.270;12.470;2023-02-28T05:55:34;17.47;;;15.77;;
19235;SDS011;9752;54.270;12.470;2023-02-28T06:00:37;19.70;;;15.93;;
19235;SDS011;9752;54.270;12.470;2023-02-28T06:05:39;21.10;;;17.50;;
19235;SDS011;9752;54.270;12.470;2023-02-28T06:10:42;22.77;;;17.30;;
19235;SDS011;9752;54.270;12.470;2023-02-28T06:15:43;21.77;;;17.77;;
19235;SDS011;9752;54.270;12.470;2023-02-28T06:20:45;24.00;;;18.30;;
19235;SDS011;9752;54.270;12.470;2023-02-28T06:25:56;25.07;;;17.73;;
19235;SDS011;9752;54.270;12.470;2023-02-28T06:30:58;22.57;;;16.20;;
19235;SDS011;9752;54.270;12.470;2023-02-28T06:36:00;22.77;;;16.23;;
19235;SDS011;9752;54.270;12.470;2023-02-28T06:41:03;21.23;;;13.50;;
19235;SDS011;9752;54.270;12.470;2023-02-28T06:46:06;20.47;;;14.07;;
19235;SDS011;9752;54.270;12.470;2023-02-28T06:51:10;19.13;;;14.13;;
19235;SDS011;9752;54.270;12.470;2023-02-28T06:56:16;18.77;;;14.10;;
19235;SDS011;9752;54.270;12.470;2023-02-28T07:01:18;25.13;;;14.57;;
19235;SDS011;9752;54.270;12.470;2023-02-28T07:06:20;15.70;;;12.33;;
19235;SDS011;9752;54.270;12.470;2023-02-28T07:11:25;22.53;;;12.60;;
19235;SDS011;9752;54.270;12.470;2023-02-28T07:16:28;23.90;;;16.00;;
19235;SDS011;9752;54.270;12.470;2023-02-28T07:21:30;25.10;;;16.13;;
19235;SDS011;9752;54.270;12.470;2023-02-28T07:26:33;21.43;;;14.87;;
19235;SDS011;9752;54.270;12.470;2023-02-28T07:31:35;25.20;;;16.40;;
19235;SDS011;9752;54.270;12.470;2023-02-28T07:36:36;17.03;;;14.73;;
19235;SDS011;9752;54.270;12.470;2023-02-28T07:41:40;20.63;;;14.87;;
19235;SDS011;9752;54.270;12.470;2023-02-28T07:46:43;23.20;;;16.43;;
19235;SDS011;9752;54.270;12.470;2023-02-28T07:51:45;28.23;;;16.17;;
19235;SDS011;9752;54.270;12.470;2023-02-28T07:56:48;19.27;;;15.33;;
19235;SDS011;9752;54.270;12.470;2023-02-28T08:01:50;18.60;;;15.47;;
19235;SDS011;9752;54.270;12.470;2023-02-28T08:06:52;23.93;;;15.63;;
19235;SDS011;9752;54.270;12.470;2023-02-28T08:11:55;23.07;;;14.73;;
19235;SDS011;9752;54.270;12.470;2023-02-28T08:16:56;21.70;;;15.17;;
19235;SDS011;9752;54.270;12.470;2023-02-28T08:21:58;21.00;;;15.73;;
19235;SDS011;9752;54.270;12.470;2023-02-28T08:27:01;20.10;;;14.47;;
19235;SDS011;9752;54.270;12.470;2023-02-28T08:32:03;16.87;;;13.50;;
19235;SDS011;9752;54.270;12.470;2023-02-28T08:37:05;17.23;;;14.07;;
19235;SDS011;9752;54.270;12.470;2023-02-28T08:42:08;15.37;;;13.27;;
19235;SDS011;9752;54.270;12.470;2023-02-28T08:47:10;16.50;;;13.60;;
19235;SDS011;9752;54.270;12.470;2023-02-28T08:52:11;19.70;;;15.00;;
19235;SDS011;9752;54.270;12.470;2023-02-28T08:57:14;19.00;;;15.50;;
19235;SDS011;9752;54.270;12.470;2023-02-28T09:02:16;16.13;;;14.47;;
19235;SDS011;9752;54.270;12.470;2023-02-28T09:07:17;15.00;;;13.43;;
19235;SDS011;9752;54.270;12.470;2023-02-28T09:12:21;14.93;;;13.27;;
19235;SDS011;9752;54.270;12.470;2023-02-28T09:17:23;15.37;;;13.47;;
19235;SDS011;9752;54.270;12.470;2023-02-28T09:22:25;15.10;;;13.50;;
19235;SDS011;9752;54.270;12.470;2023-02-28T09:27:28;15.50;;;14.40;;
19235;SDS011;9752;54.270;12.470;2023-02-28T09:32:30;15.50;;;14.50;;
19235;SDS011;9752;54.270;12.470;2023-02-28T09:37:31;17.40;;;15.90;;
19235;SDS011;9752;54.270;12.470;2023-02-28T09:42:34;16.37;;;15.30;;
19235;SDS011;9752;54.270;12.470;2023-02-28T09:47:37;18.73;;;16.90;;
19235;SDS011;9752;54.270;12.470;2023-02-28T09:52:42;15.97;;;15.07;;
19235;SDS011;9752;54.270;12.470;2023-02-28T09:57:46;15.20;;;14.47;;
19235;SDS011;9752;54.270;12.470;2023-02-28T10:02:56;15.17;;;14.17;;
19235;SDS011;9752;54.270;12.470;2023-02-28T10:08:07;14.47;;;13.67;;
19235;SDS011;9752;54.270;12.470;2023-02-28T10:13:19;14.43;;;13.63;;
19235;SDS011;9752;54.270;12.470;2023-02-28T10:18:25;14.73;;;13.93;;
19235;SDS011;9752;54.270;12.470;2023-02-28T10:23:32;14.70;;;14.00;;
19235;SDS011;9752;54.270;12.470;2023-02-28T10:28:38;15.27;;;14.57;;
19235;SDS011;9752;54.270;12.470;2023-02-28T10:33:40;13.77;;;12.87;;
19235;SDS011;9752;54.270;12.470;2023-02-28T10:38:42;13.90;;;13.10;;
19235;SDS011;9752;54.270;12.470;2023-02-28T10:43:46;13.97;;;12.90;;
19235;SDS011;9752;54.270;12.470;2023-02-28T10:48:50;14.80;;;13.63;;
19235;SDS011;9752;54.270;12.470;2023-02-28T10:54:01;14.77;;;14.03;;
19235;SDS011;9752;54.270;12.470;2023-02-28T10:59:26;13.60;;;12.50;;
19235;SDS011;9752;54.270;12.470;2023-02-28T11:04:34;12.80;;;12.13;;
19235;SDS011;9752;54.270;12.470;2023-02-28T11:09:41;14.23;;;13.27;;
19235;SDS011;9752;54.270;12.470;2023-02-28T11:14:49;15.00;;;14.20;;
19235;SDS011;9752;54.270;12.470;2023-02-28T11:19:54;14.47;;;13.60;;
19235;SDS011;9752;54.270;12.470;2023-02-28T11:24:57;13.83;;;13.03;;
19235;SDS011;9752;54.270;12.470;2023-02-28T11:30:04;14.53;;;13.70;;
19235;SDS011;9752;54.270;12.470;2023-02-28T11:35:26;14.87;;;13.97;;
19235;SDS011;9752;54.270;12.470;2023-02-28T11:40:35;14.60;;;13.77;;
19235;SDS011;9752;54.270;12.470;2023-02-28T11:45:48;14.30;;;13.50;;
19235;SDS011;9752;54.270;12.470;2023-02-28T11:51:03;14.77;;;13.87;;
19235;SDS011;9752;54.270;12.470;2023-02-28T11:56:14;14.00;;;13.40;;
19235;SDS011;9752;54.270;12.470;2023-02-28T12:01:27;14.37;;;13.67;;
19235;SDS011;9752;54.270;12.470;2023-02-28T12:06:40;13.87;;;13.27;;
19235;SDS011;9752;54.270;12.470;2023-02-28T12:11:49;14.50;;;13.80;;
19235;SDS011;9752;54.270;12.470;2023-02-28T12:16:58;14.13;;;13.33;;
19235;SDS011;9752;54.270;12.470;2023-02-28T12:22:12;13.80;;;13.20;;
19235;SDS011;9752;54.270;12.470;2023-02-28T12:27:30;13.57;;;12.87;;
19235;SDS011;9752;54.270;12.470;2023-02-28T12:32:39;13.40;;;12.90;;
19235;SDS011;9752;54.270;12.470;2023-02-28T12:37:46;13.33;;;12.73;;
19235;SDS011;9752;54.270;12.470;2023-02-28T12:42:54;12.80;;;12.20;;
19235;SDS011;9752;54.270;12.470;2023-02-28T12:48:02;13.73;;;13.13;;
19235;SDS011;9752;54.270;12.470;2023-02-28T12:53:08;14.10;;;13.50;;
19235;SDS011;9752;54.270;12.470;2023-02-28T12:58:17;14.40;;;13.60;;
19235;SDS011;9752;54.270;12.470;2023-02-28T13:03:41;13.80;;;13.10;;
19235;SDS011;9752;54.270;12.470;2023-02-28T13:09:04;13.80;;;13.10;;
19235;SDS011;9752;54.270;12.470;2023-02-28T13:14:20;13.63;;;13.10;;
19235;SDS011;9752;54.270;12.470;2023-02-28T13:19:27;13.10;;;12.57;;
19235;SDS011;9752;54.270;12.470;2023-02-28T13:24:42;13.40;;;12.90;;
19235;SDS011;9752;54.270;12.470;2023-02-28T13:29:46;13.67;;;12.93;;
19235;SDS011;9752;54.270;12.470;2023-02-28T13:40:35;13.70;;;13.20;;
19235;SDS011;9752;54.270;12.470;2023-02-28T13:45:38;13.17;;;12.77;;
19235;SDS011;9752;54.270;12.470;2023-02-28T13:50:41;12.97;;;12.47;;
19235;SDS011;9752;54.270;12.470;2023-02-28T13:55:44;13.57;;;13.07;;
19235;SDS011;9752;54.270;12.470;2023-02-28T14:01:05;13.37;;;12.87;;
19235;SDS011;9752;54.270;12.470;2023-02-28T14:06:18;14.30;;;13.50;;
19235;SDS011;9752;54.270;12.470;2023-02-28T14:11:27;14.13;;;13.60;;
19235;SDS011;9752;54.270;12.470;2023-02-28T14:16:37;14.27;;;13.57;;
19235;SDS011;9752;54.270;12.470;2023-02-28T14:21:50;14.07;;;13.57;;
19235;SDS011;9752;54.270;12.470;2023-02-28T14:27:08;13.93;;;13.37;;
19235;SDS011;9752;54.270;12.470;2023-02-28T14:32:21;14.10;;;13.60;;
19235;SDS011;9752;54.270;12.470;2023-02-28T14:37:30;14.27;;;13.57;;
19235;SDS011;9752;54.270;12.470;2023-02-28T14:42:37;14.47;;;13.67;;
19235;SDS011;9752;54.270;12.470;2023-02-28T14:47:43;14.53;;;13.93;;
19235;SDS011;9752;54.270;12.470;2023-02-28T14:52:47;14.63;;;14.00;;
19235;SDS011;9752;54.270;12.470;2023-02-28T14:57:50;14.90;;;14.20;;
19235;SDS011;9752;54.270;12.470;2023-02-28T15:02:53;14.40;;;13.80;;
19235;SDS011;9752;54.270;12.470;2023-02-28T15:08:05;14.10;;;13.50;;
19235;SDS011;9752;54.270;12.470;2023-02-28T15:13:12;14.03;;;13.37;;
19235;SDS011;9752;54.270;12.470;2023-02-28T15:18:18;14.00;;;13.40;;
19235;SDS011;9752;54.270;12.470;2023-02-28T15:23:26;13.60;;;13.07;;
19235;SDS011;9752;54.270;12.470;2023-02-28T15:28:28;13.27;;;12.53;;
19235;SDS011;9752;54.270;12.470;2023-02-28T15:33:31;14.17;;;13.43;;
19235;SDS011;9752;54.270;12.470;2023-02-28T15:38:35;14.47;;;13.57;;
19235;SDS011;9752;54.270;12.470;2023-02-28T15:43:37;14.10;;;13.20;;
19235;SDS011;9752;54.270;12.470;2023-02-28T15:48:42;12.93;;;12.43;;
19235;SDS011;9752;54.270;12.470;2023-02-28T15:53:49;13.90;;;12.90;;
19235;SDS011;9752;54.270;12.470;2023-02-28T15:58:53;12.77;;;12.27;;
19235;SDS011;9752;54.270;12.470;2023-02-28T16:03:57;12.97;;;12.47;;
19235;SDS011;9752;54.270;12.470;2023-02-28T16:09:02;13.70;;;12.90;;
19235;SDS011;9752;54.270;12.470;2023-02-28T16:14:05;12.83;;;12.20;;
19235;SDS011;9752;54.270;12.470;2023-02-28T16:19:07;15.00;;;14.40;;
19235;SDS011;9752;54.270;12.470;2023-02-28T16:24:10;14.43;;;13.73;;
19235;SDS011;9752;54.270;12.470;2023-02-28T16:29:13;14.50;;;13.77;;
19235;SDS011;9752;54.270;12.470;2023-02-28T16:34:17;14.23;;;13.43;;
19235;SDS011;9752;54.270;12.470;2023-02-28T16:39:20;13.67;;;13.03;;
19235;SDS011;9752;54.270;12.470;2023-02-28T16:44:24;13.40;;;12.70;;
19235;SDS011;9752;54.270;12.470;2023-02-28T16:49:28;14.00;;;13.40;;
19235;SDS011;9752;54.270;12.470;2023-02-28T16:54:31;13.60;;;12.67;;
19235;SDS011;9752;54.270;12.470;2023-02-28T16:59:33;13.57;;;12.90;;
19235;SDS011;9752;54.270;12.470;2023-02-28T17:04:35;13.63;;;12.37;;
19235;SDS011;9752;54.270;12.470;2023-02-28T17:09:38;13.07;;;12.40;;
19235;SDS011;9752;54.270;12.470;2023-02-28T17:14:40;11.63;;;11.03;;
19235;SDS011;9752;54.270;12.470;2023-02-28T17:19:42;12.20;;;11.60;;
19235;SDS011;9752;54.270;12.470;2023-02-28T17:24:45;15.63;;;14.83;;
19235;SDS011;9752;54.270;12.470;2023-02-28T17:29:47;18.50;;;16.97;;
19235;SDS011;9752;54.270;12.470;2023-02-28T17:34:48;12.37;;;11.87;;
19235;SDS011;9752;54.270;12.470;2023-02-28T17:39:51;11.73;;;11.10;;
19235;SDS011;9752;54.270;12.470;2023-02-28T17:44:53;11.47;;;10.60;;
19235;SDS011;9752;54.270;12.470;2023-02-28T17:49:55;14.63;;;13.27;;
19235;SDS011;9752;54.270;12.470;2023-02-28T17:54:58;17.90;;;14.73;;
19235;SDS011;9752;54.270;12.470;2023-02-28T17:59:59;11.27;;;10.50;;
19235;SDS011;9752;54.270;12.470;2023-02-28T18:05:11;13.80;;;12.07;;
19235;SDS011;9752;54.270;12.470;2023-02-28T18:10:16;14.80;;;12.23;;
19235;SDS011;9752;54.270;12.470;2023-02-28T18:15:20;13.17;;;11.87;;
19235;SDS011;9752;54.270;12.470;2023-02-28T18:20:22;14.60;;;12.13;;
19235;SDS011;9752;54.270;12.470;2023-02-28T18:25:25;11.73;;;10.53;;
19235;SDS011;9752;54.270;12.470;2023-02-28T18:30:28;13.83;;;10.73;;
19235;SDS011;9752;54.270;12.470;2023-02-28T18:35:31;12.53;;;11.30;;
19235;SDS011;9752;54.270;12.470;2023-02-28T18:40:38;11.93;;;10.80;;
19235;SDS011;9752;54.270;12.470;2023-02-28T18:45:41;13.87;;;12.47;;
19235;SDS011;9752;54.270;12.470;2023-02-28T18:50:42;16.03;;;11.77;;
19235;SDS011;9752;54.270;12.470;2023-02-28T18:55:46;12.63;;;11.37;;
19235;SDS011;9752;54.270;12.470;2023-02-28T19:00:47;9.77;;;9.07;;
19235;SDS011;9752;54.270;12.470;2023-02-28T19:05:52;8.97;;;8.37;;
19235;SDS011;9752;54.270;12.470;2023-02-28T19:10:56;8.27;;;7.80;;
19235;SDS011;9752;54.270;12.470;2023-02-28T19:15:59;8.80;;;8.00;;
19235;SDS011;9752;54.270;12.470;2023-02-28T19:21:01;8.83;;;8.00;;
19235;SDS011;9752;54.270;12.470;2023-02-28T19:26:06;10.67;;;8.90;;
19235;SDS011;9752;54.270;12.470;2023-02-28T19:31:10;8.87;;;8.20;;
19235;SDS011;9752;54.270;12.470;2023-02-28T19:36:13;10.67;;;9.57;;
19235;SDS011;9752;54.270;12.470;2023-02-28T19:41:17;19.00;;;13.33;;
19235;SDS011;9752;54.270;12.470;2023-02-28T19:46:19;12.03;;;10.93;;
19235;SDS011;9752;54.270;12.470;2023-02-28T19:51:21;12.20;;;11.10;;
19235;SDS011;9752;54.270;12.470;2023-02-28T19:56:24;11.60;;;10.67;;
19235;SDS011;9752;54.270;12.470;2023-02-28T20:01:26;11.63;;;10.43;;
19235;SDS011;9752;54.270;12.470;2023-02-28T20:06:28;11.83;;;10.63;;
19235;SDS011;9752;54.270;12.470;2023-02-28T20:11:33;17.53;;;11.27;;
19235;SDS011;9752;54.270;12.470;2023-02-28T20:16:35;11.80;;;10.70;;
19235;SDS011;9752;54.270;12.470;2023-02-28T20:21:36;11.90;;;10.37;;
19235;SDS011;9752;54.270;12.470;2023-02-28T20:26:41;14.73;;;11.17;;
19235;SDS011;9752;54.270;12.470;2023-02-28T20:31:43;14.87;;;11.53;;
19235;SDS011;9752;54.270;12.470;2023-02-28T20:36:45;14.43;;;12.03;;
19235;SDS011;9752;54.270;12.470;2023-02-28T20:41:48;13.80;;;11.83;;
19235;SDS011;9752;54.270;12.470;2023-02-28T20:46:50;12.60;;;11.40;;
19235;SDS011;9752;54.270;12.470;2023-02-28T20:51:52;18.90;;;13.37;;
19235;SDS011;9752;54.270;12.470;2023-02-28T20:56:55;13.47;;;12.03;;
19235;SDS011;9752;54.270;12.470;2023-02-28T21:01:56;13.87;;;11.60;;
19235;SDS011;9752;54.270;12.470;2023-02-28T21:06:58;16.63;;;12.80;;
19235;SDS011;9752;54.270;12.470;2023-02-28T21:12:01;21.10;;;15.83;;
19235;SDS011;9752;54.270;12.470;2023-02-28T21:17:03;18.30;;;14.87;;
19235;SDS011;9752;54.270;12.470;2023-02-28T21:22:07;19.03;;;14.87;;
19235;SDS011;9752;54.270;12.470;2023-02-28T21:27:10;15.03;;;13.40;;
19235;SDS011;9752;54.270;12.470;2023-02-28T21:32:12;20.70;;;13.43;;
19235;SDS011;9752;54.270;12.470;2023-02-28T21:37:14;15.27;;;12.07;;
19235;SDS011;9752;54.270;12.470;2023-02-28T21:42:17;15.30;;;13.23;;
19235;SDS011;9752;54.270;12.470;2023-02-28T21:47:19;13.40;;;11.77;;
19235;SDS011;9752;54.270;12.470;2023-02-28T21:52:20;14.57;;;12.03;;
19235;SDS011;9752;54.270;12.470;2023-02-28T21:57:23;18.03;;;15.10;;
19235;SDS011;9752;54.270;12.470;2023-02-28T22:02:25;21.87;;;16.00;;
19235;SDS011;9752;54.270;12.470;2023-02-28T22:07:27;22.20;;;16.20;;
19235;SDS011;9752;54.270;12.470;2023-02-28T22:12:30;21.00;;;15.43;;
19235;SDS011;9752;54.270;12.470;2023-02-28T22:17:32;23.40;;;16.03;;
19235;SDS011;9752;54.270;12.470;2023-02-28T22:22:34;20.37;;;15.57;;
19235;SDS011;9752;54.270;12.470;2023-02-28T22:27:37;22.87;;;17.47;;
19235;SDS011;9752;54.270;12.470;2023-02-28T22:32:38;23.57;;;17.67;;
19235;SDS011;9752;54.270;12.470;2023-02-28T22:37:40;22.67;;;15.37;;
19235;SDS011;9752;54.270;12.470;2023-02-28T22:42:43;30.20;;;19.03;;
19235;SDS011;9752;54.270;12.470;2023-02-28T22:47:46;28.47;;;18.87;;
19235;SDS011;9752;54.270;12.470;2023-02-28T22:52:48;27.83;;;19.73;;
19235;SDS011;9752;54.270;12.470;2023-02-28T22:57:52;25.67;;;18.73;;
19235;SDS011;9752;54.270;12.470;2023-02-28T23:02:54;26.70;;;18.53;;
19235;SDS011;9752;54.270;12.470;2023-02-28T23:07:55;23.83;;;17.73;;
19235;SDS011;9752;54.270;12.470;2023-02-28T23:12:58;20.43;;;15.90;;
19235;SDS011;9752;54.270;12.470;2023-02-28T23:18:00;22.80;;;16.83;;
19235;SDS011;9752;54.270;12.470;2023-02-28T23:23:02;22.87;;;16.20;;
19235;SDS011;9752;54.270;12.470;2023-02-28T23:28:05;25.77;;;17.10;;
19235;SDS011;9752;54.270;12.470;2023-02-28T23:33:09;23.10;;;16.30;;
19235;SDS011;9752;54.270;12.470;2023-02-28T23:38:10;22.57;;;16.30;;
19235;SDS011;9752;54.270;12.470;2023-02-28T23:43:13;29.10;;;17.17;;
19235;SDS011;9752;54.270;12.470;2023-02-28T23:48:15;22.13;;;15.57;;
19235;SDS011;9752;54.270;12.470;2023-02-28T23:53:18;26.63;;;15.33;;
19235;SDS011;9752;54.270;12.470;2023-02-28T23:58:21;22.83;;;15.60;;
